Logo AVAMET
Benvolgut visitant, si us plau, ingressa Recuperar contrasenya

Portell de Morella

Dades diàries. Acumulats / Últims 30 dies disponibles

Data Temperatura (°C) Humitat rel. (%) Pressió rel. (hPa) Vent (km/h) Precipi-
tació (mm)
Mínima Mitjana Màxima Mínima Mitjana Màxima Mínima Mitjana Màxima Predom. Mitjana Ràfega
màxima
Mínima Mitjana Màxima Mínima Mitjana Màxima
Dades mensuals acumulades fins l'últim dia disponible
02/2018 -3,9 0,4 7,4 3,1 0,1 6,1 17,6   15,6 78,9 26,8
Dades anuals acumulades fins l'últim dia disponible
2018 -3,9 2,0 10,4 5,4 0,1 9,2 18,3   13,2 78,9 75,4
Últims 30 dies disponibles
17-02-2018 3,2     7,6     9,7 W 9,3 32,2 0,0
16-02-2018 6,6     9,9     15,1 ESE 2,1 22,5 0,0
15-02-2018 7,4     11,3     17,6 W 5,6 37,0 0,0
14-02-2018 4,7     7,7     9,6 W 18,3 56,3 0,0
13-02-2018 -1,2     3,0     6,4 W 15,6 59,5 0,0
12-02-2018 -0,7     2,7     6,9 W 18,3 54,7 0,0
11-02-2018 1,3     5,9     8,9 W 20,4 53,1 1,0
10-02-2018 -0,9     0,7     2,6 W 31,9 78,9 0,0
09-02-2018 -3,9     0,2     3,8 W 15,3 70,8 0,3
08-02-2018 -3,1     -1,5     0,7 W 21,2 54,7 0,3
07-02-2018 -2,6     -1,6     0,1 W 26,7 57,9 0,0
06-02-2018 -2,7     -1,7     0,2 W 20,8 51,5 3,8
05-02-2018 0,0     1,0     3,3 W 3,2 17,7 5,1
04-02-2018 0,4     1,7     4,8 W 2,3 24,1 14,5
03-02-2018 -1,1     2,5     5,9 W 22,2 57,9 0,0
02-02-2018 -1,3     -0,3     2,3 W 23,0 64,4 0,0
01-02-2018 0,0     3,0     6,2 W 8,7 40,2 1,8
31-01-2018 1,1     5,8     12,9 ESE 1,6 16,1 0,0
30-01-2018 0,2     5,3     11,4 ESE 3,5 27,4 0,0
29-01-2018 0,6     5,2     11,6 SSE 0,6 11,3 0,0
28-01-2018 1,1     3,2     5,2 W 3,1 24,1 2,3
27-01-2018 0,9     2,2     4,1 W 15,9 48,3 0,0
26-01-2018 0,6     1,7     5,8 W 21,4 53,1 23,6
25-01-2018 5,1     10,3     15,8 W 5,3 25,7 0,3
24-01-2018 4,0     9,2     16,8 ESE 2,9 22,5 0,0
23-01-2018 4,8     10,1     14,6 W 11,4 54,7 0,0
22-01-2018 8,5     11,9     17,3 W 18,2 48,3 0,0
21-01-2018 9,1     11,1     14,3 W 24,5 69,2 0,0
20-01-2018 4,3     9,0     13,9 W 24,6 62,8 0,0
19-01-2018 5,4     7,5     10,4 W 20,1 62,8 0,0
Últims 13 mesos disponibles
01/2018 -2,8 3,0 10,4 6,6 4,1 10,9 18,3 11,8 74,0 48,6
12/2017 -3,5 1,3 9,2 5,5 1,3 10,4 16,1 12,1 91,7 4,2
11/2017 -3,3 3,3 11,4 8,0 5,1 13,7 20,9 11,4 90,1 0,0
10/2017 2,9 9,4 14,3 14,9 13,3 21,4 26,8 6,1 53,1 6,1
09/2017 4,9 11,0 16,1 16,2 11,8 22,4 27,0 6,3 66,0 2,8
08/2017 9,2 15,5 20,9 21,1 19,0 27,1 33,5 6,5 69,2 51,4
07/2017 8,7 15,5 20,2 21,3 18,3 27,4 34,3 7,7 54,7 42,0
06/2017 8,8 14,8 20,5 20,5 15,3 26,6 32,6 6,4 74,0 25,0
05/2017 3,3 10,0 15,0 15,4 15,1 20,9 27,1 7,0 56,3 8,5
04/2017 -0,6 4,7 11,4 10,4 7,8 16,6 24,4 6,6 61,2 24,6
03/2017 -0,7 4,4 11,8 9,6 6,3 15,4 24,7 7,7 86,9 43,4
02/2017 -1,2 2,6 7,9 6,9 4,5 12,1 17,1 9,2 91,7 26,7
01/2017 -6,9 0,1 6,5 3,7 -1,4 7,8 16,8 13,1 83,7 51,7
Tots els anys disponibles
2017 -6,9 7,7 20,9 12,8 -1,4 18,5 34,3 8,3 91,7 286,4
2016 -7,8 7,7 22,4 12,3 3,2 17,6 33,6 7,4 111,0 478,7
Temperatura (°C)
Humitat relativa (%)
Velocitat del vent (km/h) i direcció (°)
Pressió (hPa) i precipitació (mm)
Nota sobre les dades: s'avisa a l'usuari de la provisionalitat i no oficialitat d'aquestes dades
Logo AVAMET blanc
Llicència de Creative CommonsLa web d'AVAMET i els seus continguts estan subjectes a una llicència de
Reconeixement - No Comercial - Compartir igual
NOVETAT: Online la 25ª estació pròpia d'AVAMET (la Pobla de Benifassà - Coratxà)! - - - - -  Properes estacions: Cocentaina - 9 Oliveres (soci)  - - - - -   Últimes estacions: Rugat (ajuntament soci), Cocentaina - Centre (soci), Cocentaina - IES Pare Arques (ajuntament soci), Buñol - Camp de futbol (soci), Sinarcas - La Raílla (ajuntament soci) - - - - - - - - - - - - NOVETAT: Online la 25ª estació pròpia d'AVAMET (la Pobla de Benifassà - Coratxà)! - - - - -  Properes estacions: Cocentaina - 9 Oliveres (soci)  - - - - -   Últimes estacions: Rugat (ajuntament soci), Cocentaina - Centre (soci), Cocentaina - IES Pare Arques (ajuntament soci), Buñol - Camp de futbol (soci), Sinarcas - La Raílla (ajuntament soci)